createdAt,value
2023-01-02T00:01:24.071Z,7.53
2023-01-02T00:03:51.414Z,9.10
2023-01-02T00:06:18.751Z,9.43
2023-01-02T00:08:46.032Z,9.27
2023-01-02T00:11:13.234Z,9.53
2023-01-02T00:13:40.407Z,9.50
2023-01-02T00:16:07.940Z,9.67
2023-01-02T00:18:35.208Z,9.17
2023-01-02T00:21:05.518Z,9.75
2023-01-02T00:23:32.702Z,10.57
2023-01-02T00:26:00.157Z,10.17
2023-01-02T00:28:27.317Z,9.53
2023-01-02T00:30:54.573Z,9.23
2023-01-02T00:33:21.787Z,9.30
2023-01-02T00:35:49.027Z,9.45
2023-01-02T00:40:52.001Z,9.52
2023-01-02T00:43:19.226Z,9.37
2023-01-02T00:45:48.791Z,9.70
2023-01-02T00:48:16.082Z,10.18
2023-01-02T00:50:43.222Z,10.55
2023-01-02T00:53:10.357Z,10.40
2023-01-02T00:55:37.486Z,9.83
2023-01-02T00:58:04.707Z,9.67
2023-01-02T01:00:31.969Z,11.20
2023-01-02T01:02:59.771Z,12.53
2023-01-02T01:05:27.773Z,12.50
2023-01-02T01:07:56.122Z,12.20
2023-01-02T01:10:27.017Z,11.57
2023-01-02T01:12:54.167Z,11.87
2023-01-02T01:15:21.345Z,13.00
2023-01-02T01:17:48.799Z,15.03
2023-01-02T01:20:15.994Z,19.90
2023-01-02T01:22:43.162Z,23.47
2023-01-02T01:25:10.342Z,25.63
2023-01-02T01:27:37.623Z,22.53
2023-01-02T01:30:06.794Z,15.90
2023-01-02T01:32:34.687Z,15.27
2023-01-02T01:35:03.312Z,13.80
2023-01-02T01:37:30.532Z,12.23
2023-01-02T01:39:57.664Z,12.30
2023-01-02T01:42:24.836Z,12.47
2023-01-02T01:44:53.263Z,12.00
2023-01-02T01:47:38.977Z,17.73
2023-01-02T01:50:10.145Z,18.63
2023-01-02T01:52:49.860Z,17.87
2023-01-02T01:55:19.186Z,17.83
2023-01-02T01:57:54.987Z,15.53
2023-01-02T02:00:22.206Z,13.37
2023-01-02T02:02:50.868Z,11.77
2023-01-02T02:05:20.684Z,10.90
2023-01-02T02:08:08.244Z,10.47
2023-01-02T02:10:35.727Z,10.33
2023-01-02T02:13:02.875Z,9.47
2023-01-02T02:15:41.258Z,8.97
2023-01-02T02:18:31.428Z,9.47
2023-01-02T02:20:58.642Z,9.33
2023-01-02T02:23:32.469Z,9.47
2023-01-02T02:26:12.637Z,9.67
2023-01-02T02:28:58.759Z,10.77
2023-01-02T02:31:25.905Z,9.63
2023-01-02T02:33:56.997Z,10.00
2023-01-02T02:36:47.009Z,10.20
2023-01-02T02:39:26.899Z,9.60
2023-01-02T02:42:12.882Z,10.10
2023-01-02T02:44:55.280Z,9.43
2023-01-02T02:47:31.852Z,9.67
2023-01-02T02:50:03.387Z,9.83
2023-01-02T02:52:33.431Z,9.73
2023-01-02T02:55:06.495Z,9.03
2023-01-02T02:57:34.082Z,9.47
2023-01-02T03:00:01.565Z,9.00
2023-01-02T03:02:28.842Z,8.90
2023-01-02T03:04:58.891Z,8.60
2023-01-02T03:07:38.028Z,9.03
2023-01-02T03:10:13.988Z,9.00
2023-01-02T03:12:49.429Z,8.50
2023-01-02T03:15:24.732Z,8.90
2023-01-02T03:17:51.933Z,8.73
2023-01-02T03:20:19.943Z,9.13
2023-01-02T03:22:50.178Z,9.33
2023-01-02T03:25:18.048Z,9.27
2023-01-02T03:27:47.254Z,9.03
2023-01-02T03:30:18.283Z,8.60
2023-01-02T03:32:51.623Z,7.93
2023-01-02T03:35:22.202Z,8.63
2023-01-02T03:37:52.336Z,8.60
2023-01-02T03:40:23.304Z,8.40
2023-01-02T03:43:06.588Z,8.27
2023-01-02T03:45:56.803Z,7.47
2023-01-02T03:48:23.978Z,7.60
2023-01-02T03:50:55.643Z,8.53
2023-01-02T03:53:23.263Z,8.50
2023-01-02T03:55:59.577Z,8.27
2023-01-02T03:58:35.616Z,7.87
2023-01-02T04:01:05.986Z,8.70
2023-01-02T04:04:02.542Z,8.20
2023-01-02T04:06:33.286Z,8.37
2023-01-02T04:09:21.156Z,8.73
2023-01-02T04:11:52.655Z,7.27
2023-01-02T04:14:23.182Z,8.17
2023-01-02T04:16:50.693Z,8.10
2023-01-02T04:19:24.656Z,8.37
2023-01-02T04:21:53.939Z,7.80
2023-01-02T04:24:25.047Z,9.20
2023-01-02T04:26:57.459Z,8.77
2023-01-02T04:29:25.536Z,8.73
2023-01-02T04:32:01.737Z,8.27
2023-01-02T04:34:30.701Z,8.30
2023-01-02T04:36:57.879Z,8.60
2023-01-02T04:39:25.655Z,8.10
2023-01-02T04:41:52.787Z,8.37
2023-01-02T04:44:19.925Z,8.57
2023-01-02T04:46:47.132Z,8.53
2023-01-02T04:49:14.311Z,8.80
2023-01-02T04:51:41.533Z,8.57
2023-01-02T04:54:11.098Z,8.00
2023-01-02T04:56:38.435Z,8.80
2023-01-02T04:59:06.223Z,8.30
2023-01-02T05:01:33.576Z,9.13
2023-01-02T05:04:00.909Z,8.80
2023-01-02T05:06:28.093Z,8.67
2023-01-02T05:08:55.225Z,8.67
2023-01-02T05:11:22.497Z,9.23
2023-01-02T05:13:49.670Z,9.87
2023-01-02T05:16:16.878Z,8.80
2023-01-02T05:18:44.088Z,8.33
2023-01-02T05:21:31.020Z,8.57
2023-01-02T05:23:59.853Z,8.83
2023-01-02T05:26:27.240Z,8.70
2023-01-02T05:28:54.667Z,9.73
2023-01-02T05:31:22.114Z,9.33
2023-01-02T05:33:53.135Z,9.70
2023-01-02T05:36:20.548Z,9.60
2023-01-02T05:38:47.712Z,9.70
2023-01-02T05:41:15.150Z,9.17
2023-01-02T05:43:42.476Z,9.67
2023-01-02T05:46:10.893Z,8.83
2023-01-02T05:48:38.218Z,8.47
2023-01-02T05:51:09.239Z,8.87
2023-01-02T05:53:36.759Z,9.23
2023-01-02T05:56:07.651Z,8.37
2023-01-02T05:58:39.158Z,9.60
2023-01-02T06:01:11.858Z,9.83
2023-01-02T06:03:39.528Z,9.13
2023-01-02T06:06:08.118Z,9.90
2023-01-02T06:08:35.472Z,9.43
2023-01-02T06:11:03.226Z,8.97
2023-01-02T06:13:30.831Z,8.93
2023-01-02T06:15:58.487Z,9.37
2023-01-02T06:18:25.776Z,8.67
2023-01-02T06:20:53.475Z,8.83
2023-01-02T06:23:20.772Z,9.13
2023-01-02T06:25:47.992Z,9.47
2023-01-02T06:28:15.106Z,8.60
2023-01-02T06:30:42.263Z,9.20
2023-01-02T06:33:09.505Z,8.50
2023-01-02T06:35:36.669Z,9.33
2023-01-02T06:38:04.383Z,8.60
2023-01-02T06:40:31.552Z,9.07
2023-01-02T06:43:00.354Z,9.77
2023-01-02T06:45:27.747Z,8.07
2023-01-02T06:48:00.371Z,8.17
2023-01-02T06:50:34.674Z,8.20
2023-01-02T06:53:02.295Z,8.27
2023-01-02T06:55:29.481Z,8.50
2023-01-02T06:57:56.690Z,8.57
2023-01-02T07:00:23.831Z,8.10
2023-01-02T07:02:50.986Z,8.47
2023-01-02T07:05:24.313Z,8.30
2023-01-02T07:07:51.830Z,9.83
2023-01-02T07:10:19.043Z,10.37
2023-01-02T07:12:46.271Z,8.50
2023-01-02T07:15:13.477Z,8.73
2023-01-02T07:17:40.660Z,8.13
2023-01-02T07:20:08.240Z,8.43
2023-01-02T07:22:35.650Z,8.50
2023-01-02T07:25:02.986Z,7.50
2023-01-02T07:27:30.790Z,9.23
2023-01-02T07:29:58.174Z,9.57
2023-01-02T07:32:27.763Z,8.73
2023-01-02T07:34:55.200Z,8.43
2023-01-02T07:37:22.405Z,7.83
2023-01-02T07:39:49.676Z,7.87
2023-01-02T07:42:17.070Z,7.30
2023-01-02T07:44:44.326Z,8.03
2023-01-02T07:47:11.496Z,7.67
2023-01-02T07:49:38.771Z,8.43
2023-01-02T07:52:10.038Z,7.97
2023-01-02T07:54:37.301Z,8.07
2023-01-02T07:57:04.796Z,7.10
2023-01-02T07:59:31.982Z,7.70
2023-01-02T08:01:59.241Z,7.97
2023-01-02T08:04:26.614Z,7.60
2023-01-02T08:06:54.176Z,7.57
2023-01-02T08:09:21.400Z,8.37
2023-01-02T08:11:48.673Z,7.37
2023-01-02T08:14:21.572Z,7.27
2023-01-02T08:16:50.689Z,7.20
2023-01-02T08:19:17.999Z,11.37
2023-01-02T08:21:45.162Z,11.37
2023-01-02T08:24:12.403Z,8.87
2023-01-02T08:26:39.567Z,10.70
2023-01-02T08:29:09.076Z,8.60
2023-01-02T08:31:41.800Z,10.63
2023-01-02T08:34:14.620Z,9.27
2023-01-02T08:36:42.646Z,8.37
2023-01-02T08:39:09.925Z,7.90
2023-01-02T08:41:41.479Z,6.97
2023-01-02T08:44:08.858Z,7.40
2023-01-02T08:46:42.264Z,7.27
2023-01-02T08:49:10.350Z,6.90
2023-01-02T08:51:38.180Z,8.43
2023-01-02T08:54:05.473Z,8.73
2023-01-02T08:56:33.228Z,10.70
2023-01-02T08:59:01.603Z,9.43
2023-01-02T09:01:29.788Z,8.27
2023-01-02T09:03:57.652Z,8.37
2023-01-02T09:06:25.763Z,9.27
2023-01-02T09:08:53.432Z,9.27
2023-01-02T09:11:22.836Z,8.03
2023-01-02T09:13:50.081Z,7.87
2023-01-02T09:16:17.374Z,7.90
2023-01-02T09:18:44.646Z,7.63
2023-01-02T09:21:11.854Z,8.37
2023-01-02T09:23:39.296Z,8.40
2023-01-02T09:26:07.135Z,8.50
2023-01-02T09:28:35.244Z,9.37
2023-01-02T09:31:12.265Z,8.70
2023-01-02T09:33:40.576Z,7.10
2023-01-02T09:36:08.874Z,7.60
2023-01-02T09:38:36.193Z,7.00
2023-01-02T09:41:11.079Z,6.80
2023-01-02T09:43:41.149Z,8.13
2023-01-02T09:46:13.402Z,7.70
2023-01-02T09:48:40.727Z,7.33
2023-01-02T09:51:08.112Z,6.80
2023-01-02T09:53:35.413Z,6.23
2023-01-02T09:56:02.519Z,6.73
2023-01-02T09:58:38.753Z,6.93
2023-01-02T10:01:07.166Z,6.83
2023-01-02T10:03:38.181Z,6.30
2023-01-02T10:06:05.747Z,6.67
2023-01-02T10:08:39.072Z,6.20
2023-01-02T10:11:29.596Z,6.15
2023-01-02T10:14:19.204Z,5.70
2023-01-02T10:16:49.620Z,9.97
2023-01-02T10:19:22.021Z,8.30
2023-01-02T10:21:51.072Z,7.30
2023-01-02T10:24:21.113Z,6.47
2023-01-02T10:26:50.693Z,5.67
2023-01-02T10:29:27.395Z,5.73
2023-01-02T10:32:00.682Z,5.65
2023-01-02T10:34:34.738Z,6.20
2023-01-02T10:37:07.769Z,6.13
2023-01-02T10:39:35.383Z,16.85
2023-01-02T10:42:04.874Z,16.73
2023-01-02T10:44:33.480Z,8.95
2023-01-02T10:47:07.216Z,5.88
2023-01-02T10:49:37.792Z,6.78
2023-01-02T10:52:12.314Z,6.32
2023-01-02T10:54:53.419Z,6.05
2023-01-02T10:57:37.761Z,5.50
2023-01-02T11:00:06.415Z,6.82
2023-01-02T11:02:40.961Z,5.82
2023-01-02T11:05:09.595Z,5.80
2023-01-02T11:07:38.249Z,5.57
2023-01-02T11:10:05.741Z,5.53
2023-01-02T11:12:33.348Z,5.18
2023-01-02T11:15:10.786Z,5.47
2023-01-02T11:17:41.940Z,6.15
2023-01-02T11:20:19.848Z,6.38
2023-01-02T11:22:47.081Z,6.03
2023-01-02T11:25:21.516Z,6.10
2023-01-02T11:27:48.884Z,6.00
2023-01-02T11:30:25.200Z,5.32
2023-01-02T11:33:02.319Z,5.90
2023-01-02T11:35:39.994Z,6.10
2023-01-02T11:38:13.913Z,6.05
2023-01-02T11:40:51.476Z,5.95
2023-01-02T11:43:39.193Z,6.70
2023-01-02T11:46:10.830Z,5.65
2023-01-02T11:48:38.245Z,6.63
2023-01-02T11:51:06.887Z,6.32
2023-01-02T11:53:37.591Z,6.18
2023-01-02T11:56:16.927Z,6.75
2023-01-02T11:58:59.456Z,6.80
2023-01-02T12:01:29.703Z,6.18
2023-01-02T12:03:57.239Z,7.40
2023-01-02T12:06:26.013Z,5.43
2023-01-02T12:09:05.335Z,6.05
2023-01-02T12:11:45.427Z,6.10
2023-01-02T12:14:22.168Z,6.60
2023-01-02T12:16:59.736Z,5.57
2023-01-02T12:19:27.110Z,6.10
2023-01-02T12:22:03.721Z,5.53
2023-01-02T12:24:33.908Z,5.95
2023-01-02T12:27:20.187Z,5.38
2023-01-02T12:30:10.668Z,5.57
2023-01-02T12:32:38.687Z,6.50
2023-01-02T12:35:17.786Z,6.60
2023-01-02T12:37:58.446Z,5.40
2023-01-02T12:40:28.599Z,6.70
2023-01-02T12:43:24.974Z,6.00
2023-01-02T12:46:07.381Z,5.78
2023-01-02T12:48:46.270Z,5.97
2023-01-02T12:51:19.554Z,6.03
2023-01-02T12:54:19.997Z,5.90
2023-01-02T12:57:02.486Z,5.50
2023-01-02T12:59:29.669Z,5.65
2023-01-02T13:01:58.460Z,5.80
2023-01-02T13:04:33.853Z,5.13
2023-01-02T13:07:14.750Z,6.00
2023-01-02T13:09:43.020Z,5.25
2023-01-02T13:12:20.458Z,5.43
2023-01-02T13:14:51.604Z,5.07
2023-01-02T13:17:30.799Z,5.53
2023-01-02T13:19:57.974Z,5.70
2023-01-02T13:22:33.321Z,5.67
2023-01-02T13:25:00.641Z,6.32
2023-01-02T13:27:28.303Z,5.75
2023-01-02T13:29:55.551Z,5.43
2023-01-02T13:32:28.031Z,5.68
2023-01-02T13:34:56.055Z,5.57
2023-01-02T13:37:24.573Z,5.90
2023-01-02T13:39:56.083Z,5.38
2023-01-02T13:42:47.166Z,5.60
2023-01-02T13:45:16.689Z,5.70
2023-01-02T13:47:48.333Z,5.78
2023-01-02T13:50:24.577Z,5.38
2023-01-02T13:53:02.153Z,6.25
2023-01-02T13:55:31.492Z,5.43
2023-01-02T13:58:15.741Z,6.05
2023-01-02T14:00:53.448Z,5.60
2023-01-02T14:03:21.641Z,6.85
2023-01-02T14:05:58.532Z,6.38
2023-01-02T14:08:27.112Z,6.45
2023-01-02T14:10:57.168Z,6.00
2023-01-02T14:13:26.550Z,5.25
2023-01-02T14:16:17.084Z,6.20
2023-01-02T14:18:46.811Z,5.35
2023-01-02T14:21:16.529Z,7.40
2023-01-02T14:24:18.221Z,6.05
2023-01-02T14:26:34.589Z,7.72
2023-01-02T14:29:08.011Z,6.82
2023-01-02T14:31:36.136Z,6.53
2023-01-02T14:34:03.551Z,6.63
2023-01-02T14:36:45.299Z,6.28
2023-01-02T14:39:19.403Z,7.68
2023-01-02T14:42:10.966Z,7.45
2023-01-02T14:44:46.457Z,6.20
2023-01-02T14:47:15.076Z,5.82
2023-01-02T14:49:43.356Z,6.93
2023-01-02T14:52:15.979Z,6.25
2023-01-02T14:54:48.969Z,6.70
2023-01-02T14:57:36.395Z,6.22
2023-01-02T15:00:11.485Z,6.22
2023-01-02T15:02:40.732Z,6.63
2023-01-02T15:05:10.503Z,8.45
2023-01-02T15:07:41.062Z,7.32
2023-01-02T15:10:17.317Z,7.93
2023-01-02T15:13:04.040Z,8.10
2023-01-02T15:15:35.167Z,7.35
2023-01-02T15:18:04.840Z,7.97
2023-01-02T15:20:34.324Z,8.20
2023-01-02T15:23:01.625Z,9.17
2023-01-02T15:25:33.302Z,6.93
2023-01-02T15:28:00.509Z,9.05
2023-01-02T15:30:33.675Z,7.03
2023-01-02T15:33:00.851Z,9.95
2023-01-02T15:35:32.672Z,8.27
2023-01-02T15:37:59.926Z,28.13
2023-01-02T15:40:34.482Z,18.90
2023-01-02T15:43:24.837Z,11.98
2023-01-02T15:45:53.307Z,37.70
2023-01-02T15:48:21.862Z,34.13
2023-01-02T15:50:50.570Z,11.32
2023-01-02T15:53:34.742Z,7.95
2023-01-02T15:56:01.903Z,7.82
2023-01-02T15:58:30.730Z,8.32
2023-01-02T16:01:30.631Z,9.95
2023-01-02T16:04:02.279Z,10.07
2023-01-02T16:06:42.843Z,11.55
2023-01-02T16:09:22.804Z,9.45
2023-01-02T16:11:54.597Z,7.15
2023-01-02T16:14:45.309Z,6.53
2023-01-02T16:17:23.588Z,8.07
2023-01-02T16:19:58.169Z,7.80
2023-01-02T16:22:30.929Z,11.98
2023-01-02T16:25:01.390Z,11.90
2023-01-02T16:27:30.575Z,8.40
2023-01-02T16:29:57.821Z,8.85
2023-01-02T16:32:25.554Z,7.60
2023-01-02T16:35:22.249Z,7.30
2023-01-02T16:37:59.241Z,7.13
2023-01-02T16:41:01.536Z,6.53
2023-01-02T16:43:13.943Z,7.55
2023-01-02T16:45:41.339Z,7.88
2023-01-02T16:48:11.923Z,9.82
2023-01-02T16:50:44.223Z,7.55
2023-01-02T16:53:14.606Z,9.95
2023-01-02T16:55:41.847Z,7.22
2023-01-02T16:58:09.597Z,7.72
2023-01-02T17:00:42.960Z,6.88
2023-01-02T17:03:15.712Z,8.07
2023-01-02T17:05:44.740Z,7.18
2023-01-02T17:08:11.965Z,6.80
2023-01-02T17:10:40.214Z,6.80
2023-01-02T17:13:07.364Z,8.83
2023-01-02T17:15:34.702Z,8.07
2023-01-02T17:18:01.954Z,8.27
2023-01-02T17:20:29.507Z,7.78
2023-01-02T17:22:56.667Z,7.60
2023-01-02T17:25:24.000Z,7.90
2023-01-02T17:27:51.306Z,8.40
2023-01-02T17:30:18.782Z,8.32
2023-01-02T17:32:47.821Z,7.68
2023-01-02T17:35:15.345Z,6.90
2023-01-02T17:37:43.017Z,7.60
2023-01-02T17:40:11.229Z,7.47
2023-01-02T17:42:38.792Z,8.18
2023-01-02T17:45:06.367Z,8.18
2023-01-02T17:50:22.061Z,7.43
2023-01-02T17:52:49.236Z,8.70
2023-01-02T17:55:16.569Z,8.52
2023-01-02T17:57:43.878Z,7.05
2023-01-02T18:00:13.622Z,9.30
2023-01-02T18:02:41.550Z,10.35
2023-01-02T18:05:09.392Z,8.23
2023-01-02T18:07:36.601Z,8.05
2023-01-02T18:10:08.031Z,6.85
2023-01-02T18:12:37.914Z,7.53
2023-01-02T18:15:12.142Z,9.15
2023-01-02T18:17:39.376Z,9.07
2023-01-02T18:20:07.874Z,8.93
2023-01-02T18:22:46.031Z,9.35
2023-01-02T18:25:20.350Z,9.50
2023-01-02T18:27:48.368Z,7.03
2023-01-02T18:30:23.401Z,6.20
2023-01-02T18:32:58.674Z,6.63
2023-01-02T18:35:56.021Z,6.20
2023-01-02T18:38:34.579Z,8.63
2023-01-02T18:41:12.255Z,10.40
2023-01-02T18:43:39.498Z,9.27
2023-01-02T18:46:25.191Z,9.27
2023-01-02T18:49:18.243Z,8.05
2023-01-02T18:51:46.481Z,7.72
2023-01-02T18:54:19.589Z,6.28
2023-01-02T18:56:49.124Z,6.90
2023-01-02T18:59:30.460Z,6.07
2023-01-02T19:02:02.193Z,6.53
2023-01-02T19:04:35.948Z,6.70
2023-01-02T19:07:16.334Z,6.65
2023-01-02T19:09:43.557Z,6.50
2023-01-02T19:12:35.321Z,7.25
2023-01-02T19:15:03.003Z,5.68
2023-01-02T19:17:34.778Z,6.38
2023-01-02T19:20:02.026Z,6.53
2023-01-02T19:22:32.334Z,6.10
2023-01-02T19:25:05.446Z,5.80
2023-01-02T19:27:37.495Z,7.60
2023-01-02T19:30:27.727Z,7.60
2023-01-02T19:32:54.930Z,6.10
2023-01-02T19:35:38.852Z,6.32
2023-01-02T19:38:38.496Z,6.60
2023-01-02T19:41:05.760Z,7.70
2023-01-02T19:43:34.892Z,5.73
2023-01-02T19:46:02.231Z,6.73
2023-01-02T19:48:29.462Z,6.22
2023-01-02T19:50:56.717Z,11.10
2023-01-02T19:53:23.949Z,10.70
2023-01-02T19:55:51.159Z,8.43
2023-01-02T19:58:18.463Z,6.83
2023-01-02T20:00:45.701Z,6.97
2023-01-02T20:03:13.683Z,7.32
2023-01-02T20:05:40.959Z,7.03
2023-01-02T20:08:08.247Z,6.88
2023-01-02T20:10:35.575Z,10.17
2023-01-02T20:13:02.724Z,9.00
2023-01-02T20:15:29.936Z,8.30
2023-01-02T20:17:57.209Z,7.05
2023-01-02T20:20:25.675Z,6.47
2023-01-02T20:22:54.886Z,6.03
2023-01-02T20:25:24.637Z,6.05
2023-01-02T20:27:52.543Z,6.10
2023-01-02T20:30:24.344Z,6.43
2023-01-02T20:32:51.970Z,7.28
2023-01-02T20:35:19.198Z,7.03
2023-01-02T20:37:47.725Z,6.73
2023-01-02T20:40:15.979Z,7.17
2023-01-02T20:42:43.425Z,6.07
2023-01-02T20:45:11.273Z,7.07
2023-01-02T20:47:38.476Z,6.60
2023-01-02T20:50:05.966Z,8.98
2023-01-02T20:52:33.137Z,9.00
2023-01-02T20:55:00.565Z,11.37
2023-01-02T20:57:27.799Z,12.70
2023-01-02T20:59:55.094Z,8.20
2023-01-02T21:02:22.551Z,6.57
2023-01-02T21:04:49.902Z,6.63
2023-01-02T21:07:17.100Z,6.57
2023-01-02T21:09:44.277Z,7.05
2023-01-02T21:12:31.491Z,6.65
2023-01-02T21:14:58.655Z,6.03
2023-01-02T21:17:25.931Z,5.97
2023-01-02T21:19:53.102Z,7.00
2023-01-02T21:22:20.246Z,5.10
2023-01-02T21:24:47.565Z,4.40
2023-01-02T21:27:14.789Z,4.17
2023-01-02T21:29:42.001Z,3.73
2023-01-02T21:32:09.183Z,3.80
2023-01-02T21:34:36.363Z,3.33
2023-01-02T21:37:03.503Z,3.20
2023-01-02T21:39:30.693Z,2.40
2023-01-02T21:42:16.325Z,1.77
2023-01-02T21:44:44.187Z,1.97
2023-01-02T21:47:11.355Z,1.60
2023-01-02T21:49:38.527Z,1.70
2023-01-02T21:52:05.878Z,1.20
2023-01-02T21:54:33.186Z,0.93
2023-01-02T21:57:00.364Z,1.23
2023-01-02T21:59:27.897Z,1.10
2023-01-02T22:01:56.356Z,0.90
2023-01-02T22:04:24.994Z,0.87
2023-01-02T22:09:40.522Z,0.90
2023-01-02T22:12:07.837Z,0.73
2023-01-02T22:14:36.105Z,1.07
2023-01-02T22:17:06.178Z,1.40
2023-01-02T22:19:33.473Z,1.00
2023-01-02T22:22:00.651Z,1.00
2023-01-02T22:24:28.307Z,1.00
2023-01-02T22:26:56.935Z,1.23
2023-01-02T22:29:33.186Z,1.03
2023-01-02T22:32:11.525Z,1.10
2023-01-02T22:34:43.308Z,1.20
2023-01-02T22:37:11.255Z,1.27
2023-01-02T22:39:40.077Z,0.90
2023-01-02T22:42:59.008Z,1.10
2023-01-02T22:45:19.817Z,0.73
2023-01-02T22:47:47.620Z,0.87
2023-01-02T22:50:26.182Z,0.70
2023-01-02T22:52:53.854Z,0.70
2023-01-02T22:55:22.001Z,0.73
2023-01-02T22:57:51.788Z,1.00
2023-01-02T23:00:22.521Z,0.90
2023-01-02T23:02:50.345Z,0.80
2023-01-02T23:05:18.486Z,0.80
2023-01-02T23:07:45.964Z,0.80
2023-01-02T23:10:13.294Z,0.83
2023-01-02T23:12:40.559Z,0.67
2023-01-02T23:15:08.673Z,0.80
2023-01-02T23:17:54.661Z,0.90
2023-01-02T23:20:22.107Z,0.60
2023-01-02T23:22:50.642Z,0.90
2023-01-02T23:25:17.978Z,0.97
2023-01-02T23:27:45.139Z,1.00
2023-01-02T23:30:12.554Z,0.90
2023-01-02T23:32:39.774Z,0.70
2023-01-02T23:35:07.312Z,0.60
2023-01-02T23:37:34.511Z,0.77
2023-01-02T23:40:01.812Z,0.53
2023-01-02T23:42:29.067Z,0.60
2023-01-02T23:44:56.275Z,0.63
2023-01-02T23:47:23.448Z,0.50
2023-01-02T23:49:50.594Z,0.90
2023-01-02T23:52:17.742Z,0.60
2023-01-02T23:54:44.953Z,0.83
2023-01-02T23:57:12.223Z,0.70
2023-01-02T23:59:39.375Z,0.70
